CheckWX is a tool to help pilots better visualize weather data.  It is not intended as a substitute for an official pre-flight weather briefing.

02:44:38 UTC

KBRY METAR
Samuels Field Airport
Bardstown, Kentucky, USA
Current

30 mins ago

KBRY 260215Z AUTO 00000KT 10SM CLR 22/20 A2998 RMK AO1
Observed
Aug-26 @ 02:15 UTC
Visibility
10 SM
Flight Rules
VFR
Cloud Levels
  • Clear skies
Temperature
22°C / 72°F
Dewpoint
20°C / 68°F
Humidity
88%
Altimeter
29.98" Hg
Pressure
1015.22 hPa
Previous

50 mins ago

KBRY 260155Z AUTO 00000KT 10SM CLR 22/20 A2998 RMK AO1
Observed
Aug-26 @ 01:55 UTC
Visibility
10 SM
Flight Rules
VFR
Cloud Levels
  • Clear skies
Temperature
22°C / 72°F
Dewpoint
20°C / 68°F
Humidity
88%
Altimeter
29.98" Hg
Pressure
1015.22 hPa
Previous

1 hour ago

KBRY 260135Z AUTO 00000KT 10SM CLR 22/19 A2999 RMK AO1
Observed
Aug-26 @ 01:35 UTC
Visibility
10 SM
Flight Rules
VFR
Cloud Levels
  • Clear skies
Temperature
22°C / 72°F
Dewpoint
19°C / 66°F
Humidity
83%
Altimeter
29.99" Hg
Pressure
1015.62 hPa